Time;durP1;ratioP1;P1;durP2;ratioP2;P2;SDS_P1;SDS_P2;PMS_P1;PMS_P2;Temp;Humidity;BMP_temperature;BMP_pressure;BME280_temperature;BME280_humidity;BME280_pressure;Samples;Min_cycle;Max_cycle;Signal;HPM_P1;HPM_P2
2021/11/01 00:01:32;;;;;;;2.13;1.15;;;19.40;69.40;;;;;;5066495;28;20438;-67
2021/11/01 00:04:03;;;;;;;1.08;0.95;;;19.40;69.40;;;;;;5074361;28;20032;-68
2021/11/01 00:06:30;;;;;;;2.85;1.10;;;19.40;70.40;;;;;;5070900;28;20563;-67
2021/11/01 00:08:56;;;;;;;2.92;0.90;;;19.40;69.40;;;;;;5066525;28;20031;-68
2021/11/01 00:11:21;;;;;;;1.42;0.90;;;19.40;69.50;;;;;;5062213;28;20098;-67
2021/11/01 00:13:47;;;;;;;3.22;1.10;;;19.40;69.50;;;;;;5061694;28;20420;-67
2021/11/01 00:16:13;;;;;;;1.45;0.98;;;19.40;69.50;;;;;;5070681;28;20025;-68
2021/11/01 00:18:39;;;;;;;2.13;1.17;;;19.40;69.50;;;;;;5055667;28;20089;-67
2021/11/01 00:21:04;;;;;;;1.38;0.93;;;19.30;69.50;;;;;;5059454;28;20021;-68
2021/11/01 00:23:30;;;;;;;3.05;1.05;;;19.30;69.50;;;;;;5065414;28;20029;-67
2021/11/01 00:25:55;;;;;;;1.38;1.00;;;19.40;69.60;;;;;;5048984;28;20474;-68
2021/11/01 00:28:21;;;;;;;1.23;0.93;;;19.40;69.60;;;;;;5061661;28;20020;-68
2021/11/01 00:30:47;;;;;;;1.23;0.70;;;19.30;69.60;;;;;;5062471;28;20478;-68
2021/11/01 00:33:12;;;;;;;1.52;0.80;;;19.30;69.60;;;;;;5069715;28;20028;-68
2021/11/01 00:35:38;;;;;;;2.60;1.10;;;19.40;69.70;;;;;;5064675;28;20025;-67
2021/11/01 00:38:04;;;;;;;1.38;0.88;;;19.40;69.70;;;;;;5059133;28;20025;-67
2021/11/01 00:40:30;;;;;;;1.27;0.70;;;19.40;69.70;;;;;;5065232;28;20068;-68
2021/11/01 00:42:56;;;;;;;2.03;1.00;;;19.30;69.60;;;;;;5067511;28;20053;-67
2021/11/01 00:45:21;;;;;;;1.40;0.90;;;19.30;69.70;;;;;;5070732;28;20060;-68
2021/11/01 00:47:47;;;;;;;2.03;0.95;;;19.30;69.70;;;;;;5057790;28;20074;-68
2021/11/01 00:50:14;;;;;;;1.52;0.90;;;19.30;69.70;;;;;;5049663;28;20029;-68
2021/11/01 00:52:40;;;;;;;1.10;0.90;;;19.30;69.70;;;;;;5054468;28;20112;-68
2021/11/01 00:55:09;;;;;;;1.35;0.80;;;19.30;69.70;;;;;;5030901;28;20120;-68
2021/11/01 00:57:35;;;;;;;2.60;0.90;;;19.30;69.80;;;;;;5034382;28;20014;-68
2021/11/01 01:00:01;;;;;;;1.48;0.95;;;19.30;69.80;;;;;;5033458;28;20529;-67
2021/11/01 01:02:29;;;;;;;1.95;0.85;;;19.30;69.80;;;;;;5051074;28;20017;-67
2021/11/01 01:04:54;;;;;;;1.95;0.93;;;19.30;69.90;;;;;;5044141;28;20031;-68
2021/11/01 01:07:20;;;;;;;1.98;0.80;;;19.30;69.90;;;;;;5052371;28;20457;-68
2021/11/01 01:09:47;;;;;;;1.67;0.98;;;19.30;69.90;;;;;;5068468;28;21065;-68
2021/11/01 01:12:13;;;;;;;1.15;0.90;;;19.30;69.90;;;;;;5065376;28;20021;-68
2021/11/01 01:14:44;;;;;;;2.28;0.90;;;19.30;69.90;;;;;;5064056;28;20090;-68
2021/11/01 01:17:10;;;;;;;1.10;0.77;;;19.30;69.90;;;;;;5068189;28;20425;-67
2021/11/01 01:19:45;;;;;;;1.08;0.73;;;19.30;69.90;;;;;;5053648;28;20029;-67
2021/11/01 01:22:19;;;;;;;1.27;0.60;;;19.30;69.90;;;;;;5073014;28;20029;-68
2021/11/01 01:24:44;;;;;;;1.05;0.70;;;19.30;70.00;;;;;;5063280;28;20017;-68
2021/11/01 01:27:10;;;;;;;2.38;1.10;;;19.30;70.00;;;;;;5052685;28;20036;-68
2021/11/01 01:29:36;;;;;;;2.90;0.77;;;19.30;70.00;;;;;;5061069;28;20030;-67
2021/11/01 01:32:02;;;;;;;1.92;0.90;;;19.20;70.00;;;;;;5072621;28;20039;-67
2021/11/01 01:34:27;;;;;;;2.00;0.95;;;19.20;70.00;;;;;;5073384;28;20021;-67
2021/11/01 01:36:53;;;;;;;1.48;0.80;;;19.20;70.00;;;;;;5066552;28;20031;-68
2021/11/01 01:39:18;;;;;;;1.98;1.10;;;19.20;70.00;;;;;;5068593;28;20024;-68
2021/11/01 01:41:45;;;;;;;1.25;0.77;;;19.20;70.00;;;;;;5047281;28;20478;-68
2021/11/01 01:44:11;;;;;;;1.40;0.90;;;19.20;70.00;;;;;;5065924;28;20056;-67
2021/11/01 01:46:37;;;;;;;1.23;0.77;;;19.20;70.10;;;;;;5055185;28;20075;-68
2021/11/01 01:49:02;;;;;;;1.38;0.73;;;19.20;70.10;;;;;;5065620;28;20462;-67
2021/11/01 01:51:29;;;;;;;1.65;0.75;;;19.20;70.10;;;;;;5056833;28;20027;-68
2021/11/01 01:53:55;;;;;;;4.20;1.05;;;19.20;70.10;;;;;;5063114;28;20523;-67
2021/11/01 01:56:23;;;;;;;1.08;0.90;;;19.20;70.10;;;;;;5056928;28;20486;-67
2021/11/01 01:59:03;;;;;;;1.05;0.70;;;19.20;70.10;;;;;;5068141;28;20017;-67
2021/11/01 02:01:36;;;;;;;1.73;0.90;;;19.20;70.10;;;;;;5060203;28;20452;-67
2021/11/01 02:04:01;;;;;;;1.35;0.80;;;19.20;70.20;;;;;;5042959;28;20025;-68
2021/11/01 02:06:43;;;;;;;2.20;0.80;;;19.20;71.20;;;;;;5067140;28;20043;-67
2021/11/01 02:09:29;;;;;;;2.15;0.93;;;19.20;70.20;;;;;;5042458;28;20017;-68
2021/11/01 02:12:17;;;;;;;1.27;0.73;;;19.20;70.20;;;;;;5069546;28;20046;-67
2021/11/01 02:14:58;;;;;;;1.75;0.80;;;19.20;70.30;;;;;;5054934;28;20032;-67
2021/11/01 02:17:28;;;;;;;0.98;0.52;;;19.20;70.30;;;;;;5047012;28;20086;-67
2021/11/01 02:19:56;;;;;;;1.90;0.60;;;19.20;70.30;;;;;;5045596;28;20074;-67
2021/11/01 02:22:49;;;;;;;1.13;0.80;;;19.20;70.30;;;;;;5048081;28;20029;-67
2021/11/01 02:25:33;;;;;;;;;;;19.20;70.40;;;;;;5039804;28;20107;-67
2021/11/01 02:27:59;;;;;;;0.73;0.63;;;19.10;70.40;;;;;;5032675;28;19905;-67
2021/11/01 02:30:24;;;;;;;1.92;0.85;;;19.10;70.50;;;;;;5031854;28;20099;-67
2021/11/01 02:32:50;;;;;;;2.67;0.90;;;19.10;70.50;;;;;;5031113;28;20521;-67
2021/11/01 02:35:15;;;;;;;1.17;0.60;;;19.10;70.50;;;;;;5044851;28;20025;-67
2021/11/01 02:37:41;;;;;;;1.30;0.70;;;19.10;70.50;;;;;;5059887;28;20052;-67
2021/11/01 02:40:10;;;;;;;1.48;0.63;;;19.10;70.40;;;;;;5058862;28;20028;-67
2021/11/01 02:42:36;;;;;;;1.50;0.90;;;19.10;70.40;;;;;;5067485;28;20115;-67
2021/11/01 02:45:12;;;;;;;1.05;0.70;;;19.10;70.40;;;;;;5054187;28;20107;-67
2021/11/01 02:47:38;;;;;;;0.82;0.68;;;19.10;70.40;;;;;;5063688;28;20021;-67
2021/11/01 02:50:07;;;;;;;1.38;0.73;;;19.10;70.50;;;;;;5062764;28;20028;-67
2021/11/01 02:52:32;;;;;;;1.05;0.90;;;19.10;70.50;;;;;;5054420;28;20048;-67
2021/11/01 02:54:58;;;;;;;0.93;0.60;;;19.10;70.40;;;;;;5038189;28;20033;-67
2021/11/01 02:57:24;;;;;;;1.17;0.80;;;19.10;70.40;;;;;;5071424;28;20024;-67
2021/11/01 02:59:50;;;;;;;1.50;0.70;;;19.10;70.50;;;;;;5072055;28;20432;-67
2021/11/01 03:02:16;;;;;;;0.95;0.50;;;19.10;70.40;;;;;;5072261;28;20051;-67
2021/11/01 03:04:42;;;;;;;2.10;0.90;;;19.10;70.50;;;;;;5071119;28;20016;-67
2021/11/01 03:07:07;;;;;;;1.65;0.80;;;19.10;70.50;;;;;;5070904;28;20048;-67
2021/11/01 03:09:35;;;;;;;2.42;0.85;;;19.10;70.40;;;;;;5054629;28;20029;-67
2021/11/01 03:12:02;;;;;;;0.80;0.60;;;19.10;70.50;;;;;;5070966;28;20031;-67
2021/11/01 03:14:30;;;;;;;0.60;0.60;;;19.10;70.50;;;;;;5070680;28;20023;-67
2021/11/01 03:16:57;;;;;;;1.05;0.50;;;19.10;71.50;;;;;;5050291;28;20042;-67
2021/11/01 03:19:23;;;;;;;1.88;0.50;;;19.10;70.50;;;;;;5051027;28;20104;-67
2021/11/01 03:21:49;;;;;;;0.80;0.55;;;19.10;70.50;;;;;;5034454;28;20151;-67
2021/11/01 03:24:15;;;;;;;0.47;0.47;;;19.10;70.50;;;;;;5034225;28;20104;-67
2021/11/01 03:26:41;;;;;;;1.35;0.55;;;19.10;70.50;;;;;;5050910;28;20036;-67
2021/11/01 03:29:07;;;;;;;0.65;0.52;;;19.10;70.50;;;;;;5051681;28;20032;-67
2021/11/01 03:31:33;;;;;;;1.23;0.63;;;19.10;70.60;;;;;;5050949;28;20025;-67
2021/11/01 03:33:58;;;;;;;1.13;0.65;;;19.10;70.50;;;;;;5050733;28;20021;-67
2021/11/01 03:36:24;;;;;;;0.88;0.45;;;19.10;70.50;;;;;;5050943;28;20025;-67
2021/11/01 03:38:51;;;;;;;1.05;0.60;;;19.10;70.50;;;;;;5050715;28;20032;-67
2021/11/01 03:41:17;;;;;;;0.80;0.52;;;19.10;70.60;;;;;;5050772;28;20028;-67
2021/11/01 03:43:51;;;;;;;0.63;0.40;;;19.10;70.60;;;;;;5050372;28;20159;-67
2021/11/01 03:46:24;;;;;;;1.00;0.57;;;19.10;70.50;;;;;;5050734;28;20025;-67
2021/11/01 03:48:50;;;;;;;1.13;0.50;;;19.10;70.60;;;;;;5050706;28;20490;-67
2021/11/01 03:53:59;;;;;;;1.25;0.50;;;19.10;70.60;;;;;;5050715;28;20398;-67
2021/11/01 03:56:25;;;;;;;1.02;0.60;;;19.10;70.60;;;;;;5050780;28;20470;-66
2021/11/01 03:58:51;;;;;;;0.85;0.60;;;19.10;70.60;;;;;;5050233;28;20032;-67
2021/11/01 04:01:16;;;;;;;1.08;0.63;;;19.10;70.60;;;;;;5050452;28;20588;-67
2021/11/01 04:03:42;;;;;;;0.85;0.40;;;19.10;70.70;;;;;;5050500;28;20426;-67
2021/11/01 04:06:08;;;;;;;0.98;0.80;;;19.10;70.70;;;;;;5054521;28;20025;-68
2021/11/01 04:08:34;;;;;;;1.15;0.80;;;19.00;70.70;;;;;;5055291;28;20021;-67
2021/11/01 04:10:59;;;;;;;0.90;0.70;;;19.00;70.60;;;;;;5054066;28;20502;-67
2021/11/01 04:13:25;;;;;;;1.33;0.52;;;19.00;70.70;;;;;;5062262;28;20419;-67
2021/11/01 04:16:01;;;;;;;1.17;0.80;;;19.00;70.70;;;;;;5063685;28;20446;-67
2021/11/01 04:18:35;;;;;;;2.00;0.68;;;19.10;70.70;;;;;;5057602;28;20025;-67
2021/11/01 04:21:05;;;;;;;1.65;0.60;;;19.00;70.70;;;;;;5073077;28;20428;-67
2021/11/01 04:23:32;;;;;;;0.52;0.50;;;19.00;70.70;;;;;;5075099;28;20024;-67
2021/11/01 04:26:00;;;;;;;1.02;0.60;;;19.00;70.70;;;;;;5055422;28;20021;-67
2021/11/01 04:28:26;;;;;;;1.55;0.60;;;19.10;70.80;;;;;;5054834;28;20025;-67
2021/11/01 04:30:59;;;;;;;2.47;0.85;;;19.00;70.70;;;;;;5053993;28;20087;-67
2021/11/01 04:33:26;;;;;;;0.93;0.60;;;19.00;70.70;;;;;;5053906;28;20055;-67
2021/11/01 04:35:52;;;;;;;1.25;0.70;;;19.00;70.70;;;;;;5054804;28;20422;-66
2021/11/01 04:38:41;;;;;;;1.45;0.63;;;19.00;70.70;;;;;;5053692;28;20032;-67
2021/11/01 04:54:46;;;;;;;1.45;0.43;;;19.00;70.90;;;;;;5012733;28;20598;-67
2021/11/01 04:57:12;;;;;;;1.48;0.60;;;19.00;70.90;;;;;;5008542;28;20038;-67
2021/11/01 04:59:38;;;;;;;0.50;0.38;;;19.00;71.00;;;;;;5004044;28;20045;-67
2021/11/01 05:02:04;;;;;;;2.45;0.50;;;19.00;70.90;;;;;;5002262;28;20030;-67
2021/11/01 05:04:34;;;;;;;1.83;0.60;;;19.00;70.90;;;;;;5000530;28;20447;-67
2021/11/01 05:07:02;;;;;;;1.95;0.63;;;19.00;71.00;;;;;;5000229;28;20046;-67
2021/11/01 05:09:32;;;;;;;1.00;0.55;;;19.00;71.90;;;;;;4976872;28;20074;-67
2021/11/01 05:12:06;;;;;;;1.40;0.60;;;19.00;70.80;;;;;;5000607;28;20383;-67
2021/11/01 05:14:42;;;;;;;1.02;0.68;;;19.00;70.80;;;;;;5006401;28;20125;-67
2021/11/01 05:20:24;;;;;;;1.88;0.70;;;19.00;70.90;;;;;;4977050;28;20070;-67
2021/11/01 05:25:41;;;;;;;1.90;0.80;;;18.90;70.90;;;;;;4992207;28;20526;-67
2021/11/01 05:28:12;;;;;;;3.50;0.85;;;18.90;70.90;;;;;;4992890;28;20065;-67
2021/11/01 05:35:39;;;;;;;1.10;0.60;;;18.90;70.90;;;;;;4975824;28;20060;-67
2021/11/01 05:38:05;;;;;;;1.27;0.60;;;18.90;70.90;;;;;;4962885;28;20145;-67
2021/11/01 05:40:31;;;;;;;2.58;0.70;;;18.90;70.90;;;;;;5006955;28;20523;-67
2021/11/01 05:42:57;;;;;;;1.13;0.55;;;18.90;70.80;;;;;;4983617;28;20042;-67
2021/11/01 05:45:22;;;;;;;2.65;0.75;;;19.00;70.90;;;;;;4984418;28;20034;-67
2021/11/01 05:47:56;;;;;;;0.50;0.35;;;18.90;70.80;;;;;;4990557;28;20026;-67
2021/11/01 05:50:22;;;;;;;1.48;0.50;;;18.90;70.80;;;;;;5008967;28;20028;-67
2021/11/01 05:52:48;;;;;;;3.72;0.85;;;18.90;70.80;;;;;;5065474;28;20363;-67
2021/11/01 06:13:54;;;;;;;2.00;0.60;;;18.90;70.90;;;;;;4934041;29;20072;-67
2021/11/01 06:16:21;;;;;;;0.80;0.45;;;18.90;70.90;;;;;;4948649;29;20539;-67
2021/11/01 06:18:48;;;;;;;3.10;0.70;;;18.90;70.90;;;;;;4951778;28;20031;-67
2021/11/01 06:21:15;;;;;;;2.05;0.43;;;18.90;70.90;;;;;;4952009;29;20039;-67
2021/11/01 06:23:50;;;;;;;1.15;0.57;;;18.90;70.90;;;;;;4939855;29;20036;-67
2021/11/01 06:26:17;;;;;;;1.75;0.50;;;18.90;70.90;;;;;;4920936;29;20439;-67
2021/11/01 06:28:47;;;;;;;0.50;0.47;;;18.90;70.90;;;;;;4947060;28;20044;-67
2021/11/01 06:31:16;;;;;;;1.52;0.52;;;18.90;70.90;;;;;;4941670;29;20156;-67
2021/11/01 06:50:07;;;;;;;2.50;0.63;;;18.90;71.00;;;;;;5010463;28;20052;-67
2021/11/01 07:14:39;;;;;;;0.82;0.45;;;18.90;71.00;;;;;;4967602;28;20054;-67
2021/11/01 07:17:11;;;;;;;1.55;0.50;;;18.90;71.10;;;;;;4944782;28;20023;-67
2021/11/01 08:24:55;;;;;;;1.55;0.60;;;18.90;71.40;;;;;;4979939;28;20034;-67
2021/11/01 09:01:34;;;;;;;2.92;0.60;;;18.90;72.40;;;;;;5070012;28;20035;-67
2021/11/01 09:26:00;;;;;;;1.20;0.45;;;18.90;71.50;;;;;;5011370;28;20076;-67
2021/11/01 09:41:24;;;;;;;1.77;0.43;;;18.30;69.80;;;;;;5052857;28;20099;-67
2021/11/01 09:43:54;;;;;;;1.13;0.30;;;18.20;69.80;;;;;;5038762;28;20028;-67
2021/11/01 09:46:21;;;;;;;3.55;0.50;;;18.20;69.60;;;;;;5053568;28;20092;-67
2021/11/01 09:48:49;;;;;;;1.58;0.60;;;18.10;69.20;;;;;;5062169;28;20120;-68
2021/11/01 09:51:15;;;;;;;1.52;0.43;;;18.00;69.10;;;;;;5042409;28;20009;-68
2021/11/01 09:53:44;;;;;;;3.65;0.85;;;17.90;69.20;;;;;;5056983;28;20119;-67
2021/11/01 09:56:22;;;;;;;1.35;0.38;;;17.90;69.10;;;;;;5053039;28;20017;-68
2021/11/01 10:01:32;;;;;;;3.13;0.57;;;17.80;69.10;;;;;;5071050;28;20028;-67
2021/11/01 10:03:58;;;;;;;2.45;0.75;;;17.70;68.90;;;;;;5055907;28;20021;-68
2021/11/01 10:06:25;;;;;;;3.63;0.47;;;17.70;68.80;;;;;;5054084;28;20036;-68
2021/11/01 10:08:52;;;;;;;3.85;0.70;;;17.70;68.70;;;;;;5052044;28;20029;-68
2021/11/01 10:11:22;;;;;;;2.80;0.65;;;17.70;68.50;;;;;;5034358;28;20041;-67
2021/11/01 10:13:56;;;;;;;2.38;0.38;;;17.60;68.50;;;;;;5057508;28;20020;-67
2021/11/01 10:19:32;;;;;;;1.60;0.45;;;17.60;68.00;;;;;;5057692;28;20078;-67
2021/11/01 10:22:01;;;;;;;3.60;0.60;;;17.50;68.00;;;;;;5054852;28;20481;-67
2021/11/01 10:24:28;;;;;;;4.20;0.90;;;17.50;68.20;;;;;;5042984;28;20017;-67
2021/11/01 10:26:56;;;;;;;2.83;1.08;;;17.40;68.00;;;;;;5065950;28;20021;-67
2021/11/01 10:29:22;;;;;;;3.55;0.85;;;17.40;67.90;;;;;;5061103;28;20025;-67
2021/11/01 10:31:48;;;;;;;2.45;0.77;;;17.40;67.90;;;;;;5035590;28;20032;-68
2021/11/01 10:34:14;;;;;;;2.33;0.63;;;17.30;67.70;;;;;;5051429;28;20028;-67
2021/11/01 10:36:42;;;;;;;5.43;0.82;;;17.30;67.50;;;;;;5042339;28;20420;-67
2021/11/01 10:39:18;;;;;;;2.40;0.35;;;17.30;67.60;;;;;;5023687;28;20404;-67
2021/11/01 10:41:56;;;;;;;3.53;1.23;;;17.30;67.60;;;;;;5035702;28;20036;-67
2021/11/01 10:44:47;;;;;;;4.80;0.60;;;17.30;67.40;;;;;;5035427;28;20021;-67
2021/11/01 10:47:58;;;;;;;5.22;0.90;;;17.30;67.20;;;;;;5030712;28;20100;-67
2021/11/01 11:15:20;;;;;;;6.40;1.25;;;17.60;68.00;;;;;;4950968;28;20030;-67
2021/11/01 11:20:49;;;;;;;8.80;1.77;;;17.60;67.90;;;;;;4981225;28;20487;-67
2021/11/01 11:28:49;;;;;;;;;;;17.70;68.00;;;;;;4980823;28;20034;-67
2021/11/01 11:37:10;;;;;;;10.50;2.35;;;17.70;68.20;;;;;;4987541;28;20396;-67
2021/11/01 11:39:49;;;;;;;11.60;2.10;;;17.80;68.20;;;;;;5060312;28;20509;-67
2021/11/01 11:50:30;;;;;;;13.52;1.90;;;17.80;68.20;;;;;;5068653;28;20058;-67
2021/11/01 11:53:07;;;;;;;6.22;1.50;;;17.90;68.20;;;;;;5068423;28;20035;-67
2021/11/01 11:55:32;;;;;;;7.80;1.48;;;17.90;68.10;;;;;;5060001;28;20013;-67
2021/11/01 11:58:05;;;;;;;13.77;1.65;;;17.90;68.20;;;;;;5049627;28;20030;-67
2021/11/01 12:00:31;;;;;;;;;;;17.90;68.20;;;;;;5037689;28;20363;-67
2021/11/01 12:02:57;;;;;;;7.10;1.50;;;17.90;68.10;;;;;;5054190;28;19944;-67
2021/11/01 12:05:36;;;;;;;8.73;1.70;;;17.90;68.40;;;;;;5056176;28;20120;-67
2021/11/01 12:08:29;;;;;;;9.43;1.55;;;17.90;68.40;;;;;;5056499;28;20065;-67
2021/11/01 12:19:17;;;;;;;5.78;1.92;;;18.00;68.30;;;;;;5046828;28;20449;-67
2021/11/01 12:21:44;;;;;;;6.00;1.20;;;18.00;68.30;;;;;;5040918;28;20017;-67
2021/11/01 12:24:11;;;;;;;9.68;1.92;;;18.00;68.30;;;;;;5058990;28;20493;-67
2021/11/01 12:26:39;;;;;;;5.32;1.20;;;18.00;68.30;;;;;;5062674;28;20017;-67
2021/11/01 12:29:07;;;;;;;6.57;1.50;;;18.00;68.30;;;;;;5061553;28;20017;-67
2021/11/01 12:31:33;;;;;;;9.98;1.83;;;18.00;68.20;;;;;;5054059;28;20040;-67
2021/11/01 12:34:32;;;;;;;7.25;1.55;;;18.00;68.30;;;;;;5070600;28;20463;-67
2021/11/01 12:37:15;;;;;;;5.30;1.70;;;18.00;68.20;;;;;;5054405;28;20047;-67
2021/11/01 12:39:51;;;;;;;9.40;1.20;;;18.00;68.30;;;;;;5058239;28;20039;-67
2021/11/01 12:58:48;;;;;;;5.45;1.25;;;18.10;68.40;;;;;;5020331;28;20029;-67
2021/11/01 13:01:16;;;;;;;2.85;1.20;;;18.10;68.40;;;;;;5020664;28;20038;-67
2021/11/01 13:03:54;;;;;;;7.80;1.58;;;18.10;68.30;;;;;;5023672;28;20022;-67
2021/11/01 13:06:47;;;;;;;5.57;1.23;;;18.20;68.30;;;;;;5005542;28;20040;-67
2021/11/01 13:09:27;;;;;;;1.98;0.88;;;18.20;68.30;;;;;;5019215;28;20056;-67
2021/11/01 13:12:20;;;;;;;4.28;1.00;;;18.20;68.30;;;;;;5025460;28;20033;-67
2021/11/01 13:17:48;;;;;;;2.50;0.80;;;18.20;68.40;;;;;;4992973;28;20087;-67
2021/11/01 13:18:05;;;;;;;4.38;1.27;;;18.20;68.40;;;;;;5011193;28;20028;-67
2021/11/01 13:20:31;;;;;;;6.43;1.05;;;18.20;68.40;;;;;;5016531;28;20113;-67
2021/11/01 13:23:00;;;;;;;4.90;1.00;;;18.20;69.40;;;;;;5035123;28;20061;-67
2021/11/01 13:26:21;;;;;;;4.38;1.00;;;18.20;68.30;;;;;;5038847;28;20070;-67
2021/11/01 13:36:39;;;;;;;4.88;0.85;;;18.30;68.30;;;;;;4966393;28;20468;-67
2021/11/01 13:39:06;;;;;;;4.80;1.38;;;18.20;68.40;;;;;;4974523;28;20034;-67
2021/11/01 13:41:32;;;;;;;4.47;1.05;;;18.20;68.30;;;;;;4975445;28;20042;-67
2021/11/01 13:44:09;;;;;;;6.90;1.30;;;18.30;68.30;;;;;;4975561;28;20066;-67
2021/11/01 13:46:41;;;;;;;7.28;1.20;;;18.30;68.20;;;;;;4991422;28;20045;-67
2021/11/01 13:49:08;;;;;;;6.57;1.02;;;18.30;68.30;;;;;;4975528;28;20024;-67
2021/11/01 13:51:34;;;;;;;3.45;0.60;;;18.30;68.20;;;;;;4991673;28;20554;-67
2021/11/01 13:54:14;;;;;;;5.90;1.23;;;18.30;68.30;;;;;;4975151;28;20126;-67
2021/11/01 13:56:46;;;;;;;3.30;1.00;;;18.30;68.30;;;;;;4991284;28;20026;-67
2021/11/01 14:15:25;;;;;;;4.50;1.02;;;18.30;68.20;;;;;;5064105;28;20065;-67
2021/11/01 14:18:15;;;;;;;3.97;0.90;;;18.30;68.20;;;;;;5046451;28;20085;-67
2021/11/01 14:26:46;;;;;;;3.47;1.08;;;18.30;68.20;;;;;;5048815;28;20033;-66
2021/11/01 14:29:21;;;;;;;2.53;0.80;;;18.30;68.20;;;;;;5051173;28;20056;-66
2021/11/01 14:55:05;;;;;;;3.17;0.90;;;18.30;68.20;;;;;;5057653;28;20374;-67
2021/11/01 15:14:49;;;;;;;3.75;0.80;;;18.30;68.00;;;;;;5046977;28;20024;-67
2021/11/01 15:17:24;;;;;;;2.50;0.63;;;18.30;68.10;;;;;;5060353;28;20401;-67
2021/11/01 15:33:26;;;;;;;2.92;0.73;;;18.30;69.10;;;;;;5048026;28;20036;-68
2021/11/01 16:18:51;;;;;;;2.63;0.60;;;18.40;68.10;;;;;;4989046;28;20030;-67
2021/11/01 16:21:17;;;;;;;0.95;0.47;;;18.40;68.00;;;;;;4989012;28;20030;-68
2021/11/01 16:23:43;;;;;;;1.55;0.50;;;18.40;68.00;;;;;;4996828;28;20129;-69
2021/11/01 16:26:24;;;;;;;1.40;0.50;;;18.50;68.10;;;;;;4985872;28;20164;-69
2021/11/01 16:28:55;;;;;;;3.72;0.68;;;18.40;68.00;;;;;;4972981;28;20035;-69
2021/11/01 16:31:29;;;;;;;0.80;0.50;;;18.50;68.10;;;;;;4970194;28;20038;-69
2021/11/01 16:34:00;;;;;;;2.30;0.65;;;18.50;68.10;;;;;;4966705;28;20072;-69
2021/11/01 16:39:38;;;;;;;1.38;0.55;;;18.50;68.00;;;;;;4987783;28;20058;-68
2021/11/01 16:42:04;;;;;;;4.53;0.90;;;18.50;68.10;;;;;;4971259;28;20029;-68
2021/11/01 16:44:35;;;;;;;2.13;0.52;;;18.50;68.10;;;;;;4991714;28;20038;-69
2021/11/01 16:47:00;;;;;;;1.27;0.55;;;18.50;68.00;;;;;;4973012;28;20105;-69
2021/11/01 16:49:29;;;;;;;1.70;0.40;;;18.50;68.00;;;;;;5003778;28;20484;-69
2021/11/01 16:51:54;;;;;;;0.80;0.40;;;18.50;68.00;;;;;;5051319;28;20100;-69
2021/11/01 16:54:27;;;;;;;2.92;0.60;;;18.50;68.00;;;;;;5052796;28;20108;-68
2021/11/01 16:57:17;;;;;;;2.42;0.88;;;18.50;67.90;;;;;;5050445;28;20025;-68
2021/11/01 16:59:46;;;;;;;3.13;0.70;;;18.50;67.80;;;;;;5057539;28;20560;-68
2021/11/01 17:26:34;;;;;;;1.52;0.38;;;18.50;67.80;;;;;;5019058;28;20491;-68
2021/11/01 17:34:43;;;;;;;2.20;0.75;;;18.60;67.90;;;;;;5020171;28;20037;-68
2021/11/01 17:37:33;;;;;;;2.20;0.85;;;18.60;67.90;;;;;;4952288;29;20465;-69
2021/11/01 18:36:15;;;;;;;2.30;0.45;;;18.60;67.80;;;;;;5031490;28;20167;-68
2021/11/01 18:40:35;;;;;;;1.90;0.50;;;18.60;67.70;;;;;;5031575;28;20028;-68
2021/11/01 18:43:12;;;;;;;0.95;0.60;;;18.60;67.70;;;;;;5031258;28;20494;-68
2021/11/01 18:51:32;;;;;;;3.08;0.43;;;18.60;67.60;;;;;;5045165;28;20394;-68
2021/11/01 18:54:21;;;;;;;2.92;0.60;;;18.60;67.70;;;;;;5037204;28;20025;-68
2021/11/01 18:56:48;;;;;;;0.93;0.40;;;18.60;67.50;;;;;;5051341;28;20053;-68
2021/11/01 18:59:17;;;;;;;3.90;0.60;;;18.60;67.70;;;;;;5034690;28;20057;-68
2021/11/01 19:02:04;;;;;;;0.88;0.43;;;18.60;67.60;;;;;;5051060;28;20021;-68
2021/11/01 19:04:36;;;;;;;1.48;0.50;;;18.60;67.60;;;;;;5051295;28;20084;-68
2021/11/01 19:07:18;;;;;;;1.30;0.57;;;18.60;67.60;;;;;;5052226;28;20037;-68
2021/11/01 20:04:16;;;;;;;0.50;0.30;;;18.50;67.50;;;;;;5055109;28;20044;-68
2021/11/01 21:26:22;;;;;;;0.98;0.47;;;18.50;67.10;;;;;;4992614;28;20606;-67
2021/11/01 21:28:51;;;;;;;0.68;0.40;;;18.50;67.10;;;;;;4992658;28;20034;-67
2021/11/01 21:31:17;;;;;;;1.02;0.55;;;18.50;67.10;;;;;;4992619;28;20033;-68
2021/11/01 21:33:49;;;;;;;0.88;0.38;;;18.50;67.10;;;;;;4992398;28;20459;-67
2021/11/01 21:36:22;;;;;;;1.25;0.50;;;18.50;67.00;;;;;;4992638;28;20030;-68
2021/11/01 21:38:48;;;;;;;1.15;0.50;;;18.50;67.10;;;;;;4992501;28;20498;-67
2021/11/01 21:41:14;;;;;;;1.42;0.50;;;18.50;67.00;;;;;;4992491;28;20030;-67
2021/11/01 21:43:39;;;;;;;1.10;0.40;;;18.50;67.00;;;;;;4992135;28;20538;-67
2021/11/01 21:46:05;;;;;;;0.88;0.60;;;18.50;67.00;;;;;;5010277;28;20033;-67
2021/11/01 21:48:31;;;;;;;1.15;0.40;;;18.50;66.90;;;;;;5053825;28;20036;-67
2021/11/01 21:50:57;;;;;;;1.58;0.50;;;18.50;66.90;;;;;;5051691;28;20485;-67
2021/11/01 21:53:25;;;;;;;1.05;0.50;;;18.50;66.90;;;;;;5052401;28;20025;-67
2021/11/01 21:55:51;;;;;;;0.52;0.40;;;18.60;67.00;;;;;;5053404;28;20100;-67
2021/11/01 22:17:01;;;;;;;0.63;0.47;;;18.50;66.80;;;;;;5048770;28;20038;-68
2021/11/01 22:19:56;;;;;;;1.05;0.50;;;18.50;66.80;;;;;;5060206;28;20020;-68
2021/11/01 22:56:55;;;;;;;1.38;0.40;;;18.60;67.80;;;;;;4940256;29;20038;-66
2021/11/01 22:59:22;;;;;;;0.43;0.30;;;18.70;66.80;;;;;;4938829;29;20055;-66
2021/11/01 23:01:49;;;;;;;0.40;0.40;;;18.70;66.80;;;;;;4959104;28;20077;-66
2021/11/01 23:33:53;;;;;;;0.80;0.50;;;19.00;66.90;;;;;;5050676;28;20036;-69
2021/11/01 23:36:19;;;;;;;0.70;0.40;;;18.90;66.90;;;;;;5050901;28;20025;-68
2021/11/01 23:38:45;;;;;;;0.28;0.28;;;19.00;66.80;;;;;;5051007;28;20390;-68
2021/11/01 23:41:10;;;;;;;0.40;0.30;;;19.00;66.80;;;;;;5033900;28;20501;-68
2021/11/01 23:43:36;;;;;;;0.80;0.50;;;19.00;66.80;;;;;;5050860;28;20028;-68
2021/11/01 23:46:01;;;;;;;0.43;0.35;;;19.00;66.80;;;;;;5050748;28;20087;-68
2021/11/01 23:48:27;;;;;;;1.33;0.40;;;19.00;66.80;;;;;;5050522;28;20033;-68
2021/11/01 23:50:54;;;;;;;0.60;0.40;;;19.10;66.90;;;;;;5050637;28;20029;-68
2021/11/01 23:53:34;;;;;;;1.45;0.43;;;19.10;66.90;;;;;;5051782;28;20240;-68
2021/11/01 23:56:00;;;;;;;1.42;0.40;;;19.10;66.90;;;;;;5051824;28;20029;-68
2021/11/01 23:58:26;;;;;;;0.45;0.40;;;19.10;66.80;;;;;;5034275;28;20394;-68
